sensor_id;sensor_type;location;lat;lon;timestamp;pressure;altitude;pressure_sealevel;temperature;humidity
29371;BME280;16357;52.188;7.838;2024-02-21T00:02:11;101433.50;;;11.51;65.69
29371;BME280;16357;52.188;7.838;2024-02-21T00:04:38;101436.19;;;11.51;65.56
29371;BME280;16357;52.188;7.838;2024-02-21T00:07:05;101428.13;;;11.51;65.80
29371;BME280;16357;52.188;7.838;2024-02-21T00:09:31;101422.91;;;11.49;65.84
29371;BME280;16357;52.188;7.838;2024-02-21T00:11:58;101414.69;;;11.51;65.92
29371;BME280;16357;52.188;7.838;2024-02-21T00:14:26;101417.38;;;11.51;65.85
29371;BME280;16357;52.188;7.838;2024-02-21T00:16:52;101405.78;;;11.50;65.80
29371;BME280;16357;52.188;7.838;2024-02-21T00:19:19;101392.19;;;11.52;66.04
29371;BME280;16357;52.188;7.838;2024-02-21T00:21:45;101388.69;;;11.51;65.90
29371;BME280;16357;52.188;7.838;2024-02-21T00:24:12;101388.69;;;11.51;65.78
29371;BME280;16357;52.188;7.838;2024-02-21T00:26:38;101384.28;;;11.50;65.66
29371;BME280;16357;52.188;7.838;2024-02-21T00:29:05;101374.53;;;11.49;65.47
29371;BME280;16357;52.188;7.838;2024-02-21T00:31:34;101387.13;;;11.49;65.70
29371;BME280;16357;52.188;7.838;2024-02-21T00:34:01;101372.84;;;11.48;65.55
29371;BME280;16357;52.188;7.838;2024-02-21T00:36:27;101371.13;;;11.47;65.38
29371;BME280;16357;52.188;7.838;2024-02-21T00:38:54;101378.34;;;11.47;65.56
29371;BME280;16357;52.188;7.838;2024-02-21T00:41:20;101372.97;;;11.47;65.60
29371;BME280;16357;52.188;7.838;2024-02-21T00:43:46;101372.97;;;11.47;65.74
29371;BME280;16357;52.188;7.838;2024-02-21T00:46:15;101361.41;;;11.46;65.61
29371;BME280;16357;52.188;7.838;2024-02-21T00:48:41;101362.25;;;11.47;65.76
29371;BME280;16357;52.188;7.838;2024-02-21T00:51:08;101375.66;;;11.47;65.61
29371;BME280;16357;52.188;7.838;2024-02-21T00:53:34;101363.25;;;11.46;65.63
29371;BME280;16357;52.188;7.838;2024-02-21T00:56:05;101362.25;;;11.47;65.67
29371;BME280;16357;52.188;7.838;2024-02-21T00:58:32;101355.00;;;11.47;65.69
29371;BME280;16357;52.188;7.838;2024-02-21T01:00:59;101359.56;;;11.47;65.66
29371;BME280;16357;52.188;7.838;2024-02-21T01:03:26;101365.63;;;11.49;65.64
29371;BME280;16357;52.188;7.838;2024-02-21T01:05:52;101364.63;;;11.50;65.64
29371;BME280;16357;52.188;7.838;2024-02-21T01:08:19;101363.66;;;11.51;65.84
29371;BME280;16357;52.188;7.838;2024-02-21T01:10:45;101366.34;;;11.51;65.44
29371;BME280;16357;52.188;7.838;2024-02-21T01:13:12;101363.47;;;11.52;65.71
29371;BME280;16357;52.188;7.838;2024-02-21T01:15:38;101354.28;;;11.55;65.48
29371;BME280;16357;52.188;7.838;2024-02-21T01:18:05;101357.97;;;11.54;65.46
29371;BME280;16357;52.188;7.838;2024-02-21T01:20:32;101353.44;;;11.54;65.73
29371;BME280;16357;52.188;7.838;2024-02-21T01:22:58;101347.06;;;11.55;65.48
29371;BME280;16357;52.188;7.838;2024-02-21T01:25:25;101345.25;;;11.56;65.29
29371;BME280;16357;52.188;7.838;2024-02-21T01:27:51;101342.56;;;11.56;65.78
29371;BME280;16357;52.188;7.838;2024-02-21T01:30:18;101342.56;;;11.56;65.35
29371;BME280;16357;52.188;7.838;2024-02-21T01:32:44;101327.28;;;11.56;65.52
29371;BME280;16357;52.188;7.838;2024-02-21T01:35:11;101330.81;;;11.57;65.29
29371;BME280;16357;52.188;7.838;2024-02-21T01:37:37;101337.03;;;11.57;65.20
29371;BME280;16357;52.188;7.838;2024-02-21T01:40:05;101330.63;;;11.58;65.25
29371;BME280;16357;52.188;7.838;2024-02-21T01:42:31;101327.94;;;11.58;65.47
29371;BME280;16357;52.188;7.838;2024-02-21T01:44:58;101318.06;;;11.59;65.44
29371;BME280;16357;52.188;7.838;2024-02-21T01:47:24;101309.00;;;11.60;65.45
29371;BME280;16357;52.188;7.838;2024-02-21T01:49:51;101306.31;;;11.60;64.98
29371;BME280;16357;52.188;7.838;2024-02-21T01:52:18;101307.31;;;11.59;65.41
29371;BME280;16357;52.188;7.838;2024-02-21T01:54:46;101296.41;;;11.60;65.45
29371;BME280;16357;52.188;7.838;2024-02-21T01:57:13;101287.50;;;11.60;65.29
29371;BME280;16357;52.188;7.838;2024-02-21T01:59:39;101289.19;;;11.61;65.36
29371;BME280;16357;52.188;7.838;2024-02-21T02:02:06;101297.25;;;11.61;65.45
29371;BME280;16357;52.188;7.838;2024-02-21T02:04:34;101296.41;;;11.60;65.29
29371;BME280;16357;52.188;7.838;2024-02-21T02:07:02;101298.13;;;11.61;65.29
29371;BME280;16357;52.188;7.838;2024-02-21T02:09:30;101286.50;;;11.61;65.49
29371;BME280;16357;52.188;7.838;2024-02-21T02:11:56;101277.59;;;11.60;65.41
29371;BME280;16357;52.188;7.838;2024-02-21T02:14:25;101281.13;;;11.61;65.33
29371;BME280;16357;52.188;7.838;2024-02-21T02:16:51;101266.00;;;11.60;65.38
29371;BME280;16357;52.188;7.838;2024-02-21T02:19:18;101263.31;;;11.60;65.26
29371;BME280;16357;52.188;7.838;2024-02-21T02:21:46;101248.03;;;11.60;65.36
29371;BME280;16357;52.188;7.838;2024-02-21T02:24:20;101249.03;;;11.59;65.24
29371;BME280;16357;52.188;7.838;2024-02-21T02:26:47;101243.66;;;11.59;65.33
29371;BME280;16357;52.188;7.838;2024-02-21T02:29:13;101240.16;;;11.59;65.28
29371;BME280;16357;52.188;7.838;2024-02-21T02:31:40;101227.53;;;11.59;65.51
29371;BME280;16357;52.188;7.838;2024-02-21T02:34:06;101224.03;;;11.59;65.48
29371;BME280;16357;52.188;7.838;2024-02-21T02:36:33;101227.53;;;11.59;65.22
29371;BME280;16357;52.188;7.838;2024-02-21T02:39:00;101218.66;;;11.59;65.24
29371;BME280;16357;52.188;7.838;2024-02-21T02:41:26;101210.72;;;11.57;65.07
29371;BME280;16357;52.188;7.838;2024-02-21T02:43:53;101217.78;;;11.58;65.82
29371;BME280;16357;52.188;7.838;2024-02-21T02:46:19;101213.41;;;11.57;65.11
29371;BME280;16357;52.188;7.838;2024-02-21T02:48:46;101211.56;;;11.58;65.45
29371;BME280;16357;52.188;7.838;2024-02-21T02:51:12;101207.19;;;11.57;65.60
29371;BME280;16357;52.188;7.838;2024-02-21T02:53:39;101209.03;;;11.56;65.49
29371;BME280;16357;52.188;7.838;2024-02-21T02:56:05;101210.88;;;11.56;65.27
29371;BME280;16357;52.188;7.838;2024-02-21T02:58:32;101199.28;;;11.55;65.16
29371;BME280;16357;52.188;7.838;2024-02-21T03:00:58;101198.44;;;11.55;65.45
29371;BME280;16357;52.188;7.838;2024-02-21T03:03:25;101203.81;;;11.55;65.43
29371;BME280;16357;52.188;7.838;2024-02-21T03:05:51;101212.03;;;11.53;65.30
29371;BME280;16357;52.188;7.838;2024-02-21T03:08:18;101211.16;;;11.53;66.05
29371;BME280;16357;52.188;7.838;2024-02-21T03:10:44;101207.50;;;11.54;65.46
29371;BME280;16357;52.188;7.838;2024-02-21T03:13:11;101209.19;;;11.55;65.26
29371;BME280;16357;52.188;7.838;2024-02-21T03:15:37;101211.88;;;11.55;65.44
29371;BME280;16357;52.188;7.838;2024-02-21T03:18:04;101209.19;;;11.55;65.33
29371;BME280;16357;52.188;7.838;2024-02-21T03:20:30;101213.56;;;11.56;65.29
29371;BME280;16357;52.188;7.838;2024-02-21T03:22:57;101222.47;;;11.56;65.37
29371;BME280;16357;52.188;7.838;2024-02-21T03:25:24;101218.78;;;11.57;65.17
29371;BME280;16357;52.188;7.838;2024-02-21T03:27:50;101212.56;;;11.57;65.16
29371;BME280;16357;52.188;7.838;2024-02-21T03:30:18;101214.25;;;11.58;65.29
29371;BME280;16357;52.188;7.838;2024-02-21T03:32:44;101210.59;;;11.59;65.37
29371;BME280;16357;52.188;7.838;2024-02-21T03:35:10;101215.97;;;11.59;65.42
29371;BME280;16357;52.188;7.838;2024-02-21T03:37:37;101217.63;;;11.60;65.39
29371;BME280;16357;52.188;7.838;2024-02-21T03:40:11;101212.25;;;11.60;65.32
29371;BME280;16357;52.188;7.838;2024-02-21T03:42:38;101216.78;;;11.59;65.09
29371;BME280;16357;52.188;7.838;2024-02-21T03:45:05;101213.28;;;11.59;64.92
29371;BME280;16357;52.188;7.838;2024-02-21T03:47:31;101208.88;;;11.58;65.21
29371;BME280;16357;52.188;7.838;2024-02-21T03:49:58;101204.34;;;11.58;65.16
29371;BME280;16357;52.188;7.838;2024-02-21T03:52:26;101202.53;;;11.59;65.17
29371;BME280;16357;52.188;7.838;2024-02-21T03:54:53;101203.50;;;11.58;65.12
29371;BME280;16357;52.188;7.838;2024-02-21T03:57:21;101203.50;;;11.58;65.37
29371;BME280;16357;52.188;7.838;2024-02-21T03:59:50;101207.91;;;11.59;65.29
29371;BME280;16357;52.188;7.838;2024-02-21T04:02:18;101203.50;;;11.58;64.90
29371;BME280;16357;52.188;7.838;2024-02-21T04:04:44;101196.44;;;11.57;64.89
29371;BME280;16357;52.188;7.838;2024-02-21T04:07:16;101209.88;;;11.57;65.03
29371;BME280;16357;52.188;7.838;2024-02-21T04:09:43;101209.88;;;11.57;65.19
29371;BME280;16357;52.188;7.838;2024-02-21T04:12:09;101212.56;;;11.57;65.01
29371;BME280;16357;52.188;7.838;2024-02-21T04:14:36;101213.56;;;11.56;65.05
29371;BME280;16357;52.188;7.838;2024-02-21T04:17:02;101212.56;;;11.57;65.31
29371;BME280;16357;52.188;7.838;2024-02-21T04:19:29;101201.81;;;11.57;65.22
29371;BME280;16357;52.188;7.838;2024-02-21T04:21:57;101202.66;;;11.57;65.26
29371;BME280;16357;52.188;7.838;2024-02-21T04:24:24;101198.13;;;11.58;65.05
29371;BME280;16357;52.188;7.838;2024-02-21T04:26:50;101196.28;;;11.58;65.19
29371;BME280;16357;52.188;7.838;2024-02-21T04:29:17;101192.75;;;11.58;65.14
29371;BME280;16357;52.188;7.838;2024-02-21T04:31:43;101194.47;;;11.59;65.42
29371;BME280;16357;52.188;7.838;2024-02-21T04:34:10;101199.84;;;11.59;65.18
29371;BME280;16357;52.188;7.838;2024-02-21T04:36:36;101172.97;;;11.59;65.32
29371;BME280;16357;52.188;7.838;2024-02-21T04:39:03;101182.84;;;11.58;65.28
29371;BME280;16357;52.188;7.838;2024-02-21T04:41:29;101186.53;;;11.57;65.10
29371;BME280;16357;52.188;7.838;2024-02-21T04:43:56;101186.53;;;11.57;65.27
29371;BME280;16357;52.188;7.838;2024-02-21T04:46:22;101188.38;;;11.57;65.31
29371;BME280;16357;52.188;7.838;2024-02-21T04:48:49;101187.53;;;11.56;65.17
29371;BME280;16357;52.188;7.838;2024-02-21T04:51:15;101194.78;;;11.56;65.42
29371;BME280;16357;52.188;7.838;2024-02-21T04:53:42;101188.53;;;11.55;65.42
29371;BME280;16357;52.188;7.838;2024-02-21T04:56:08;101179.63;;;11.55;65.43
29371;BME280;16357;52.188;7.838;2024-02-21T04:58:38;101167.91;;;11.56;65.63
29371;BME280;16357;52.188;7.838;2024-02-21T05:01:04;101166.19;;;11.55;65.57
29371;BME280;16357;52.188;7.838;2024-02-21T05:03:31;101150.06;;;11.55;65.47
29371;BME280;16357;52.188;7.838;2024-02-21T05:05:58;101157.16;;;11.56;65.35
29371;BME280;16357;52.188;7.838;2024-02-21T05:08:25;101150.06;;;11.55;65.32
29371;BME280;16357;52.188;7.838;2024-02-21T05:10:52;101149.22;;;11.54;65.34
29371;BME280;16357;52.188;7.838;2024-02-21T05:13:18;101149.22;;;11.54;65.27
29371;BME280;16357;52.188;7.838;2024-02-21T05:15:45;101144.00;;;11.53;65.09
29371;BME280;16357;52.188;7.838;2024-02-21T05:18:11;101138.78;;;11.51;65.33
29371;BME280;16357;52.188;7.838;2024-02-21T05:20:38;101137.94;;;11.51;65.44
29371;BME280;16357;52.188;7.838;2024-02-21T05:23:04;101138.94;;;11.50;65.67
29371;BME280;16357;52.188;7.838;2024-02-21T05:25:31;101137.09;;;11.50;65.36
29371;BME280;16357;52.188;7.838;2024-02-21T05:27:57;101135.41;;;11.49;65.00
29371;BME280;16357;52.188;7.838;2024-02-21T05:30:28;101125.50;;;11.50;65.45
29371;BME280;16357;52.188;7.838;2024-02-21T05:32:55;101125.50;;;11.50;65.44
29371;BME280;16357;52.188;7.838;2024-02-21T05:35:25;101124.66;;;11.49;65.43
29371;BME280;16357;52.188;7.838;2024-02-21T05:37:52;101125.50;;;11.50;65.33
29371;BME280;16357;52.188;7.838;2024-02-21T05:40:19;101126.50;;;11.49;65.48
29371;BME280;16357;52.188;7.838;2024-02-21T05:42:46;101121.97;;;11.49;65.43
29371;BME280;16357;52.188;7.838;2024-02-21T05:45:12;101118.44;;;11.49;65.43
29371;BME280;16357;52.188;7.838;2024-02-21T05:47:39;101122.81;;;11.50;65.44
29371;BME280;16357;52.188;7.838;2024-02-21T05:50:06;101120.13;;;11.50;65.58
29371;BME280;16357;52.188;7.838;2024-02-21T05:52:32;101121.84;;;11.51;65.46
29371;BME280;16357;52.188;7.838;2024-02-21T05:54:59;101124.34;;;11.52;65.38
29371;BME280;16357;52.188;7.838;2024-02-21T05:57:25;101138.63;;;11.53;65.43
29371;BME280;16357;52.188;7.838;2024-02-21T05:59:52;101136.94;;;11.52;65.81
29371;BME280;16357;52.188;7.838;2024-02-21T06:02:19;101130.56;;;11.53;65.36
29371;BME280;16357;52.188;7.838;2024-02-21T06:04:46;101133.25;;;11.53;65.07
29371;BME280;16357;52.188;7.838;2024-02-21T06:07:13;101143.84;;;11.54;65.08
29371;BME280;16357;52.188;7.838;2024-02-21T06:09:39;101134.97;;;11.54;64.90
29371;BME280;16357;52.188;7.838;2024-02-21T06:12:06;101136.81;;;11.53;65.01
29371;BME280;16357;52.188;7.838;2024-02-21T06:14:33;101128.75;;;11.53;64.89
29371;BME280;16357;52.188;7.838;2024-02-21T06:17:11;101111.75;;;11.53;65.20
29371;BME280;16357;52.188;7.838;2024-02-21T06:19:40;101110.78;;;11.54;65.35
29371;BME280;16357;52.188;7.838;2024-02-21T06:22:08;101094.78;;;11.52;65.14
29371;BME280;16357;52.188;7.838;2024-02-21T06:24:35;101096.63;;;11.52;65.27
29371;BME280;16357;52.188;7.838;2024-02-21T06:27:06;101097.34;;;11.54;65.52
29371;BME280;16357;52.188;7.838;2024-02-21T06:29:36;101092.09;;;11.52;65.38
29371;BME280;16357;52.188;7.838;2024-02-21T06:32:03;101091.28;;;11.52;65.13
29371;BME280;16357;52.188;7.838;2024-02-21T06:34:29;101091.28;;;11.52;65.16
29371;BME280;16357;52.188;7.838;2024-02-21T06:37:00;101083.22;;;11.52;65.13
29371;BME280;16357;52.188;7.838;2024-02-21T06:39:26;101083.34;;;11.50;64.99
29371;BME280;16357;52.188;7.838;2024-02-21T06:41:55;101074.44;;;11.50;64.79
29371;BME280;16357;52.188;7.838;2024-02-21T06:44:27;101074.44;;;11.50;65.06
29371;BME280;16357;52.188;7.838;2024-02-21T06:46:54;101067.41;;;11.49;65.01
29371;BME280;16357;52.188;7.838;2024-02-21T06:49:21;101063.00;;;11.48;65.11
29371;BME280;16357;52.188;7.838;2024-02-21T06:51:48;101055.97;;;11.47;65.04
29371;BME280;16357;52.188;7.838;2024-02-21T06:54:14;101057.63;;;11.48;64.99
29371;BME280;16357;52.188;7.838;2024-02-21T06:56:41;101047.91;;;11.47;65.17
29371;BME280;16357;52.188;7.838;2024-02-21T06:59:07;101055.97;;;11.47;65.07
29371;BME280;16357;52.188;7.838;2024-02-21T07:01:34;101055.97;;;11.47;65.20
29371;BME280;16357;52.188;7.838;2024-02-21T07:04:00;101060.50;;;11.46;65.03
29371;BME280;16357;52.188;7.838;2024-02-21T07:06:27;101064.00;;;11.47;65.07
29371;BME280;16357;52.188;7.838;2024-02-21T07:08:53;101083.66;;;11.47;65.10
29371;BME280;16357;52.188;7.838;2024-02-21T07:11:20;101072.91;;;11.47;65.05
29371;BME280;16357;52.188;7.838;2024-02-21T07:13:47;101074.63;;;11.48;65.23
29371;BME280;16357;52.188;7.838;2024-02-21T07:16:13;101076.28;;;11.49;64.83
29371;BME280;16357;52.188;7.838;2024-02-21T07:18:40;101083.34;;;11.50;65.30
29371;BME280;16357;52.188;7.838;2024-02-21T07:21:06;101084.88;;;11.53;64.86
29371;BME280;16357;52.188;7.838;2024-02-21T07:23:33;101082.19;;;11.53;65.02
29371;BME280;16357;52.188;7.838;2024-02-21T07:25:59;101071.44;;;11.53;64.83
29371;BME280;16357;52.188;7.838;2024-02-21T07:28:26;101081.03;;;11.55;65.04
29371;BME280;16357;52.188;7.838;2024-02-21T07:30:52;101083.59;;;11.57;65.05
29371;BME280;16357;52.188;7.838;2024-02-21T07:33:19;101075.22;;;11.60;64.77
29371;BME280;16357;52.188;7.838;2024-02-21T07:35:45;101075.91;;;11.62;64.71
29371;BME280;16357;52.188;7.838;2024-02-21T07:38:12;101075.75;;;11.63;64.54
29371;BME280;16357;52.188;7.838;2024-02-21T07:40:39;101079.28;;;11.64;64.57
29371;BME280;16357;52.188;7.838;2024-02-21T07:43:06;101077.28;;;11.66;64.52
29371;BME280;16357;52.188;7.838;2024-02-21T07:45:32;101075.28;;;11.68;64.01
29371;BME280;16357;52.188;7.838;2024-02-21T07:47:59;101081.50;;;11.69;64.45
29371;BME280;16357;52.188;7.838;2024-02-21T07:50:26;101077.00;;;11.69;64.39
29371;BME280;16357;52.188;7.838;2024-02-21T07:52:53;101077.00;;;11.69;64.41
29371;BME280;16357;52.188;7.838;2024-02-21T07:55:19;101063.38;;;11.71;64.27
29371;BME280;16357;52.188;7.838;2024-02-21T07:57:46;101072.28;;;11.71;64.12
29371;BME280;16357;52.188;7.838;2024-02-21T08:00:12;101067.59;;;11.73;64.21
29371;BME280;16357;52.188;7.838;2024-02-21T08:02:46;101069.44;;;11.73;64.42
29371;BME280;16357;52.188;7.838;2024-02-21T08:05:12;101064.91;;;11.73;64.42
29371;BME280;16357;52.188;7.838;2024-02-21T08:07:39;101061.06;;;11.76;64.58
29371;BME280;16357;52.188;7.838;2024-02-21T08:10:06;101051.00;;;11.78;64.69
29371;BME280;16357;52.188;7.838;2024-02-21T08:12:35;101048.84;;;11.81;64.59
29371;BME280;16357;52.188;7.838;2024-02-21T08:15:02;101037.75;;;11.84;64.50
29371;BME280;16357;52.188;7.838;2024-02-21T08:17:31;101031.97;;;11.89;64.67
29371;BME280;16357;52.188;7.838;2024-02-21T08:19:59;101043.91;;;11.95;64.26
29371;BME280;16357;52.188;7.838;2024-02-21T08:22:26;101032.84;;;11.98;64.23
29371;BME280;16357;52.188;7.838;2024-02-21T08:24:53;101030.53;;;12.03;64.16
29371;BME280;16357;52.188;7.838;2024-02-21T08:27:20;101031.91;;;12.07;64.19
29371;BME280;16357;52.188;7.838;2024-02-21T08:29:46;101012.75;;;12.10;63.66
29371;BME280;16357;52.188;7.838;2024-02-21T08:32:12;101013.13;;;12.15;63.35
29371;BME280;16357;52.188;7.838;2024-02-21T08:34:39;101010.94;;;12.19;63.49
29371;BME280;16357;52.188;7.838;2024-02-21T08:37:06;101006.25;;;12.21;63.02
29371;BME280;16357;52.188;7.838;2024-02-21T08:39:32;101011.50;;;12.22;62.91
29371;BME280;16357;52.188;7.838;2024-02-21T08:41:59;101003.41;;;12.22;63.07
29371;BME280;16357;52.188;7.838;2024-02-21T08:44:27;101002.25;;;12.25;63.09
29371;BME280;16357;52.188;7.838;2024-02-21T08:46:55;100989.50;;;12.27;62.44
29371;BME280;16357;52.188;7.838;2024-02-21T08:49:22;101000.25;;;12.27;62.50
29371;BME280;16357;52.188;7.838;2024-02-21T08:51:49;101001.09;;;12.27;62.89
29371;BME280;16357;52.188;7.838;2024-02-21T08:54:15;100998.22;;;12.29;62.79
29371;BME280;16357;52.188;7.838;2024-02-21T08:56:43;100988.16;;;12.31;62.78
29371;BME280;16357;52.188;7.838;2024-02-21T08:59:09;100989.69;;;12.34;62.64
29371;BME280;16357;52.188;7.838;2024-02-21T09:01:36;100989.34;;;12.37;62.78
29371;BME280;16357;52.188;7.838;2024-02-21T09:04:03;100983.63;;;12.40;62.49
29371;BME280;16357;52.188;7.838;2024-02-21T09:06:30;100983.34;;;12.43;62.59
29371;BME280;16357;52.188;7.838;2024-02-21T09:08:57;100990.06;;;12.47;62.52
29371;BME280;16357;52.188;7.838;2024-02-21T09:11:24;100990.56;;;12.50;62.10
29371;BME280;16357;52.188;7.838;2024-02-21T09:13:51;100987.56;;;12.54;61.90
29371;BME280;16357;52.188;7.838;2024-02-21T09:16:17;100983.53;;;12.58;61.81
29371;BME280;16357;52.188;7.838;2024-02-21T09:18:44;100984.91;;;12.62;62.16
29371;BME280;16357;52.188;7.838;2024-02-21T09:21:10;100973.63;;;12.66;61.66
29371;BME280;16357;52.188;7.838;2024-02-21T09:23:37;100971.28;;;12.71;61.60
29371;BME280;16357;52.188;7.838;2024-02-21T09:26:03;100968.94;;;12.77;61.36
29371;BME280;16357;52.188;7.838;2024-02-21T09:28:30;100973.69;;;12.83;61.20
29371;BME280;16357;52.188;7.838;2024-02-21T09:30:57;100962.41;;;12.87;60.89
29371;BME280;16357;52.188;7.838;2024-02-21T09:33:24;100953.69;;;12.93;61.33
29371;BME280;16357;52.188;7.838;2024-02-21T09:35:58;100954.03;;;12.99;60.56
29371;BME280;16357;52.188;7.838;2024-02-21T09:38:25;100942.56;;;13.05;60.85
29371;BME280;16357;52.188;7.838;2024-02-21T09:41:15;100948.28;;;13.10;60.72
29371;BME280;16357;52.188;7.838;2024-02-21T09:43:51;100945.09;;;13.14;60.18
29371;BME280;16357;52.188;7.838;2024-02-21T09:46:24;100935.66;;;13.18;60.59
29371;BME280;16357;52.188;7.838;2024-02-21T09:51:38;100934.31;;;13.23;59.90
29371;BME280;16357;52.188;7.838;2024-02-21T09:54:07;100942.94;;;13.26;59.87
29371;BME280;16357;52.188;7.838;2024-02-21T09:56:44;100933.66;;;13.29;59.89
29371;BME280;16357;52.188;7.838;2024-02-21T09:59:11;100933.31;;;13.32;59.41
29371;BME280;16357;52.188;7.838;2024-02-21T10:01:37;100936.53;;;13.35;59.02
29371;BME280;16357;52.188;7.838;2024-02-21T10:04:04;100929.28;;;13.36;58.97
29371;BME280;16357;52.188;7.838;2024-02-21T10:06:32;100932.66;;;13.38;58.90
29371;BME280;16357;52.188;7.838;2024-02-21T10:08:58;100934.34;;;13.39;59.03
29371;BME280;16357;52.188;7.838;2024-02-21T10:11:26;100922.53;;;13.40;58.67
29371;BME280;16357;52.188;7.838;2024-02-21T10:14:05;100931.13;;;13.44;58.69
29371;BME280;16357;52.188;7.838;2024-02-21T10:16:38;100931.28;;;13.42;58.83
29371;BME280;16357;52.188;7.838;2024-02-21T10:19:05;100925.91;;;13.42;58.40
29371;BME280;16357;52.188;7.838;2024-02-21T10:21:32;100926.09;;;13.41;58.35
29371;BME280;16357;52.188;7.838;2024-02-21T10:23:58;100925.22;;;13.40;58.61
29371;BME280;16357;52.188;7.838;2024-02-21T10:26:24;100928.59;;;13.42;58.84
29371;BME280;16357;52.188;7.838;2024-02-21T10:28:51;100918.50;;;13.44;58.14
29371;BME280;16357;52.188;7.838;2024-02-21T10:31:26;100909.06;;;13.48;58.36
29371;BME280;16357;52.188;7.838;2024-02-21T10:34:03;100909.72;;;13.50;58.16
29371;BME280;16357;52.188;7.838;2024-02-21T10:36:30;100907.91;;;13.51;58.13
29371;BME280;16357;52.188;7.838;2024-02-21T10:38:57;100891.53;;;13.52;58.06
29371;BME280;16357;52.188;7.838;2024-02-21T10:41:24;100889.50;;;13.54;57.89
29371;BME280;16357;52.188;7.838;2024-02-21T10:43:54;100881.22;;;13.56;58.15
29371;BME280;16357;52.188;7.838;2024-02-21T10:46:23;100879.41;;;13.56;58.12
29371;BME280;16357;52.188;7.838;2024-02-21T10:49:06;100871.97;;;13.58;58.10
29371;BME280;16357;52.188;7.838;2024-02-21T10:51:33;100860.19;;;13.59;57.83
29371;BME280;16357;52.188;7.838;2024-02-21T10:56:38;100851.41;;;13.66;57.46
29371;BME280;16357;52.188;7.838;2024-02-21T10:59:07;100846.69;;;13.68;57.26
29371;BME280;16357;52.188;7.838;2024-02-21T11:01:34;100843.63;;;13.71;57.87
29371;BME280;16357;52.188;7.838;2024-02-21T11:04:06;100840.41;;;13.75;57.10
29371;BME280;16357;52.188;7.838;2024-02-21T11:06:35;100841.56;;;13.81;57.38
29371;BME280;16357;52.188;7.838;2024-02-21T11:09:07;100830.25;;;13.86;57.36
29371;BME280;16357;52.188;7.838;2024-02-21T11:11:38;100822.66;;;13.89;56.71
29371;BME280;16357;52.188;7.838;2024-02-21T11:14:07;100811.34;;;13.94;56.07
29371;BME280;16357;52.188;7.838;2024-02-21T11:16:39;100806.41;;;13.97;56.34
29371;BME280;16357;52.188;7.838;2024-02-21T11:19:27;100801.53;;;14.01;55.88
29371;BME280;16357;52.188;7.838;2024-02-21T11:21:57;100798.84;;;14.01;55.76
29371;BME280;16357;52.188;7.838;2024-02-21T11:24:33;100792.41;;;14.02;55.68
29371;BME280;16357;52.188;7.838;2024-02-21T11:27:15;100796.97;;;14.01;55.52
29371;BME280;16357;52.188;7.838;2024-02-21T11:29:49;100779.94;;;14.01;55.48
29371;BME280;16357;52.188;7.838;2024-02-21T11:32:30;100780.78;;;14.01;55.35
29371;BME280;16357;52.188;7.838;2024-02-21T11:37:35;100764.97;;;13.98;55.24
29371;BME280;16357;52.188;7.838;2024-02-21T11:40:06;100773.88;;;13.99;55.57
29371;BME280;16357;52.188;7.838;2024-02-21T11:42:36;100772.03;;;13.99;55.31
29371;BME280;16357;52.188;7.838;2024-02-21T11:45:02;100760.22;;;14.00;55.47
29371;BME280;16357;52.188;7.838;2024-02-21T11:47:29;100755.47;;;14.02;55.43
29371;BME280;16357;52.188;7.838;2024-02-21T11:49:56;100751.78;;;14.03;54.91
29371;BME280;16357;52.188;7.838;2024-02-21T11:52:24;100753.44;;;14.04;55.31
29371;BME280;16357;52.188;7.838;2024-02-21T11:54:53;100748.06;;;14.04;55.29
29371;BME280;16357;52.188;7.838;2024-02-21T11:57:21;100743.69;;;14.03;55.23
29371;BME280;16357;52.188;7.838;2024-02-21T11:59:47;100743.03;;;14.01;55.30
29371;BME280;16357;52.188;7.838;2024-02-21T12:02:16;100736.78;;;14.01;55.39
29371;BME280;16357;52.188;7.838;2024-02-21T12:04:43;100728.88;;;13.99;55.53
29371;BME280;16357;52.188;7.838;2024-02-21T12:07:11;100724.50;;;13.98;55.57
29371;BME280;16357;52.188;7.838;2024-02-21T12:09:37;100718.59;;;13.95;55.20
29371;BME280;16357;52.188;7.838;2024-02-21T12:12:05;100705.69;;;13.90;55.52
29371;BME280;16357;52.188;7.838;2024-02-21T12:14:33;100696.25;;;13.86;55.08
29371;BME280;16357;52.188;7.838;2024-02-21T12:17:01;100694.09;;;13.81;55.43
29371;BME280;16357;52.188;7.838;2024-02-21T12:19:31;100693.63;;;13.78;56.03
29371;BME280;16357;52.188;7.838;2024-02-21T12:22:01;100685.69;;;13.76;55.92
29371;BME280;16357;52.188;7.838;2024-02-21T12:24:32;100674.25;;;13.74;55.73
29371;BME280;16357;52.188;7.838;2024-02-21T12:26:59;100683.38;;;13.73;56.17
29371;BME280;16357;52.188;7.838;2024-02-21T12:29:26;100678.16;;;13.72;56.21
29371;BME280;16357;52.188;7.838;2024-02-21T12:31:54;100668.59;;;13.69;55.87
29371;BME280;16357;52.188;7.838;2024-02-21T12:34:21;100664.38;;;13.67;56.15
29371;BME280;16357;52.188;7.838;2024-02-21T12:37:04;100661.19;;;13.63;56.05
29371;BME280;16357;52.188;7.838;2024-02-21T12:39:30;100649.25;;;13.57;55.96
29371;BME280;16357;52.188;7.838;2024-02-21T12:41:58;100634.47;;;13.53;55.92
29371;BME280;16357;52.188;7.838;2024-02-21T12:44:24;100634.19;;;13.48;56.49
29371;BME280;16357;52.188;7.838;2024-02-21T12:46:51;100627.28;;;13.46;56.06
29371;BME280;16357;52.188;7.838;2024-02-21T12:49:20;100615.00;;;13.43;56.57
29371;BME280;16357;52.188;7.838;2024-02-21T12:51:47;100585.69;;;13.40;56.45
29371;BME280;16357;52.188;7.838;2024-02-21T12:54:14;100561.44;;;13.40;56.61
29371;BME280;16357;52.188;7.838;2024-02-21T12:56:40;100562.09;;;13.42;57.05
29371;BME280;16357;52.188;7.838;2024-02-21T12:59:06;100545.56;;;13.45;57.03
29371;BME280;16357;52.188;7.838;2024-02-21T13:01:36;100549.59;;;13.49;56.77